Startpagina
METAR-TAF:

METAR-TAF

Vliegvelden :

Karachi, Pakistan

breedte: 24-54N, lengte: 067-08E, hoogte: 21 m

Actueel weer

Dit bericht is 38 minuten geleden gemaakt, om 05:25 UTC
Wind 8 kt uit het noordnoordoosten
Temperatuur 20°C
Vochtigheid 28%
Druk 1023 hPa
Zicht: 6000 m

METAR: OPKC 170525Z 03008KT 6000 NSC 20/01 Q1023 NOSIG

Tijdstip: 11:03 (06:03 UTC)

Verwachting

Dit bericht is 2 uur en het 33 minuten geleden gemaakt, om 03:30 UTC
Verwachting geldig van 17 om 06 UTC tot 17 om 15 UTC
Wind 10 kt uit het noordoosten met uitschieters tot 20 kt
Zicht: 6000 m

TAF: OPKC 170330Z 1706/1715 05010G20KT 6000 NSC

Waarnemingen en weersverwachtingen van meer dan 4000 vliegvelden (METAR en TAF).

De beschikbare stations zijn de gele en rode punten op de kaart.

Ga met uw muis naar het station om de naam te zien.

Klik dan om waarnemingen en weersverwachtingen te zien.

kaart wijzigen: klik op de groene knoppen met een zwart kruis om in te zoomen, op de groene knop met een streepje om uit te zoomen of op de groene pijlen voor aangrenzende kaarten.


METAR-TAF: